createdAt,value
2023-04-28T00:00:30.282Z,100758.56
2023-04-28T00:02:58.051Z,100753.22
2023-04-28T00:05:25.829Z,100755.91
2023-04-28T00:07:53.484Z,100754.06
2023-04-28T00:10:21.222Z,100749.59
2023-04-28T00:12:48.790Z,100746.06
2023-04-28T00:15:16.659Z,100744.38
2023-04-28T00:17:44.416Z,100753.22
2023-04-28T00:20:12.502Z,100756.75
2023-04-28T00:22:40.337Z,100747.06
2023-04-28T00:25:08.560Z,100757.84
2023-04-28T00:27:36.472Z,100748.03
2023-04-28T00:30:04.496Z,100748.63
2023-04-28T00:32:33.859Z,100755.50
2023-04-28T00:35:01.438Z,100745.56
2023-04-28T00:37:29.157Z,100752.63
2023-04-28T00:39:56.924Z,100760.50
2023-04-28T00:42:24.606Z,100762.19
2023-04-28T00:44:52.218Z,100758.53
2023-04-28T00:47:19.811Z,100753.22
2023-04-28T00:49:49.701Z,100752.38
2023-04-28T00:52:17.362Z,100754.94
2023-04-28T00:54:45.148Z,100752.25
2023-04-28T00:57:12.713Z,100757.59
2023-04-28T00:59:40.352Z,100748.84
2023-04-28T01:02:08.563Z,100749.00
2023-04-28T01:04:36.255Z,100744.63
2023-04-28T01:07:04.530Z,100737.50
2023-04-28T01:09:32.340Z,100749.94
2023-04-28T01:12:00.229Z,100743.78
2023-04-28T01:14:40.765Z,100734.91
2023-04-28T01:17:09.163Z,100728.84
2023-04-28T01:19:36.912Z,100734.31
2023-04-28T01:22:05.346Z,100727.28
2023-04-28T01:24:32.893Z,100728.00
2023-04-28T01:27:04.548Z,100732.63
2023-04-28T01:29:32.184Z,100740.75
2023-04-28T01:32:17.720Z,100735.66
2023-04-28T01:34:45.752Z,100729.72
2023-04-28T01:37:13.336Z,100731.81
2023-04-28T01:39:40.988Z,100725.88
2023-04-28T01:42:08.675Z,100722.72
2023-04-28T01:44:36.307Z,100723.97
2023-04-28T01:47:03.883Z,100722.38
2023-04-28T01:49:31.623Z,100737.44
2023-04-28T01:51:59.132Z,100731.13
2023-04-28T01:54:27.561Z,100722.13
2023-04-28T01:56:55.596Z,100729.19
2023-04-28T01:59:27.325Z,100728.06
2023-04-28T02:01:55.077Z,100734.13
2023-04-28T02:04:24.022Z,100729.53
2023-04-28T02:06:51.740Z,100731.06
2023-04-28T02:09:19.405Z,100728.41
2023-04-28T02:11:47.041Z,100726.63
2023-04-28T02:14:14.923Z,100727.47
2023-04-28T02:16:42.750Z,100729.13
2023-04-28T02:19:12.182Z,100723.94
2023-04-28T02:21:39.709Z,100724.78
2023-04-28T02:24:08.584Z,100723.81
2023-04-28T02:26:36.158Z,100721.97
2023-04-28T02:29:06.586Z,100730.13
2023-04-28T02:31:34.292Z,100726.63
2023-04-28T02:34:01.940Z,100730.13
2023-04-28T02:36:29.573Z,100725.63
2023-04-28T02:38:57.144Z,100725.63
2023-04-28T02:41:24.790Z,100721.28
2023-04-28T02:43:52.370Z,100723.22
2023-04-28T02:46:20.076Z,100720.66
2023-04-28T02:48:47.656Z,100727.81
2023-04-28T02:51:15.283Z,100732.31
2023-04-28T02:53:42.913Z,100726.13
2023-04-28T02:56:10.784Z,100730.47
2023-04-28T02:58:38.433Z,100732.19
2023-04-28T03:01:06.283Z,100741.75
2023-04-28T03:03:34.434Z,100734.47
2023-04-28T03:06:02.252Z,100737.97
2023-04-28T03:08:29.818Z,100736.88
2023-04-28T03:10:57.369Z,100738.72
2023-04-28T03:13:25.576Z,100730.81
2023-04-28T03:15:53.273Z,100729.97
2023-04-28T03:18:22.564Z,100725.63
2023-04-28T03:20:50.389Z,100726.63
2023-04-28T03:23:17.984Z,100729.53
2023-04-28T03:25:45.954Z,100728.66
2023-04-28T03:28:13.565Z,100738.47
2023-04-28T03:30:41.603Z,100734.97
2023-04-28T03:33:09.172Z,100734.00
2023-04-28T03:35:36.892Z,100729.53
2023-04-28T03:38:05.012Z,100721.53
2023-04-28T03:40:32.756Z,100734.13
2023-04-28T03:43:12.477Z,100729.06
2023-04-28T03:45:47.551Z,100724.09
2023-04-28T03:48:15.201Z,100727.03
2023-04-28T03:50:43.535Z,100727.13
2023-04-28T03:53:11.928Z,100731.50
2023-04-28T03:55:39.644Z,100734.03
2023-04-28T03:58:07.227Z,100733.06
2023-04-28T04:00:35.610Z,100733.06
2023-04-28T04:03:03.928Z,100725.78
2023-04-28T04:05:31.758Z,100729.19
2023-04-28T04:07:59.569Z,100743.38
2023-04-28T04:10:27.898Z,100737.06
2023-04-28T04:12:55.698Z,100729.88
2023-04-28T04:15:23.215Z,100731.72
2023-04-28T04:17:51.144Z,100741.41
2023-04-28T04:20:18.787Z,100738.72
2023-04-28T04:22:47.040Z,100743.13
2023-04-28T04:25:15.624Z,100742.28
2023-04-28T04:27:47.377Z,100744.06
2023-04-28T04:30:15.588Z,100748.44
2023-04-28T04:32:43.379Z,100748.31
2023-04-28T04:35:11.089Z,100750.97
2023-04-28T04:37:39.283Z,100752.81
2023-04-28T04:40:07.706Z,100745.63
2023-04-28T04:42:41.255Z,100753.53
2023-04-28T04:45:16.714Z,100748.19
2023-04-28T04:47:44.742Z,100744.66
2023-04-28T04:50:12.790Z,100756.91
2023-04-28T04:52:40.826Z,100753.28
2023-04-28T04:55:08.785Z,100759.31
2023-04-28T04:57:36.460Z,100759.31
2023-04-28T05:00:11.458Z,100759.22
2023-04-28T05:02:40.130Z,100756.53
2023-04-28T05:05:20.316Z,100761.75
2023-04-28T05:07:53.299Z,100763.31
2023-04-28T05:10:22.490Z,100766.81
2023-04-28T05:12:50.113Z,100770.34
2023-04-28T05:15:18.998Z,100773.97
2023-04-28T05:18:09.917Z,100777.50
2023-04-28T05:20:38.512Z,100780.16
2023-04-28T05:23:06.941Z,100781.97
2023-04-28T05:25:34.754Z,100781.84
2023-04-28T05:28:07.799Z,100785.25
2023-04-28T05:30:35.676Z,100789.50
2023-04-28T05:33:03.493Z,100792.00
2023-04-28T05:35:31.778Z,100793.84
2023-04-28T05:37:59.642Z,100793.97
2023-04-28T05:40:28.301Z,100796.50
2023-04-28T05:42:56.959Z,100799.91
2023-04-28T05:45:25.331Z,100798.09
2023-04-28T05:47:53.053Z,100802.69
2023-04-28T05:50:21.796Z,100798.19
2023-04-28T05:52:50.924Z,100800.66
2023-04-28T05:55:18.856Z,100809.53
2023-04-28T05:57:53.147Z,100806.84
2023-04-28T06:00:22.479Z,100806.56
2023-04-28T06:02:53.595Z,100805.38
2023-04-28T06:05:21.950Z,100806.06
2023-04-28T06:07:54.485Z,100805.81
2023-04-28T06:10:23.831Z,100820.75
2023-04-28T06:12:51.383Z,100826.91
2023-04-28T06:15:19.067Z,100829.59
2023-04-28T06:17:48.191Z,100833.81
2023-04-28T06:20:16.842Z,100823.03
2023-04-28T06:22:44.914Z,100832.72
2023-04-28T06:25:12.942Z,100828.25
2023-04-28T06:27:46.247Z,100828.00
2023-04-28T06:30:20.196Z,100832.34
2023-04-28T06:32:47.972Z,100834.06
2023-04-28T06:35:16.800Z,100836.44
2023-04-28T06:37:44.614Z,100841.66
2023-04-28T06:40:12.436Z,100843.34
2023-04-28T06:42:44.166Z,100841.78
2023-04-28T06:45:16.394Z,100850.91
2023-04-28T06:47:45.547Z,100848.25
2023-04-28T06:50:13.410Z,100852.59
2023-04-28T06:52:41.102Z,100859.63
2023-04-28T06:55:09.702Z,100857.09
2023-04-28T06:57:38.349Z,100864.00
2023-04-28T07:00:06.724Z,100865.81
2023-04-28T07:02:35.325Z,100867.28
2023-04-28T07:05:03.832Z,100872.22
2023-04-28T07:07:31.894Z,100867.34
2023-04-28T07:10:00.605Z,100867.69
2023-04-28T07:12:28.404Z,100871.81
2023-04-28T07:14:56.403Z,100873.13
2023-04-28T07:17:24.121Z,100875.41
2023-04-28T07:19:51.689Z,100875.28
2023-04-28T07:22:19.294Z,100878.53
2023-04-28T07:24:46.960Z,100883.50
2023-04-28T07:27:14.679Z,100880.31
2023-04-28T07:29:42.267Z,100886.22
2023-04-28T07:32:10.772Z,100884.16
2023-04-28T07:34:38.795Z,100885.72
2023-04-28T07:37:07.050Z,100892.41
2023-04-28T07:39:35.391Z,100888.78
2023-04-28T07:42:03.633Z,100897.25
2023-04-28T07:44:32.537Z,100893.63
2023-04-28T07:47:01.219Z,100897.72
2023-04-28T07:49:29.963Z,100903.50
2023-04-28T07:51:58.056Z,100908.22
2023-04-28T07:54:26.320Z,100905.88
2023-04-28T07:56:54.068Z,100913.75
2023-04-28T07:59:21.733Z,100922.59
2023-04-28T08:01:49.338Z,100921.66
2023-04-28T08:04:17.017Z,100929.25
2023-04-28T08:06:45.779Z,100922.81
2023-04-28T08:09:13.381Z,100930.56
2023-04-28T08:11:40.981Z,100924.97
2023-04-28T08:14:08.580Z,100933.56
2023-04-28T08:16:38.569Z,100936.81
2023-04-28T08:19:06.192Z,100935.84
2023-04-28T08:21:34.342Z,100934.88
2023-04-28T08:24:02.017Z,100946.28
2023-04-28T08:26:29.660Z,100947.38
2023-04-28T08:28:57.273Z,100945.69
2023-04-28T08:31:24.923Z,100952.88
2023-04-28T08:33:53.172Z,100953.13
2023-04-28T08:36:21.583Z,100955.06
2023-04-28T08:38:49.334Z,100959.31
2023-04-28T08:41:17.251Z,100955.06
2023-04-28T08:43:45.765Z,100953.38
2023-04-28T08:46:14.973Z,100961.41
2023-04-28T08:48:47.566Z,100965.78
2023-04-28T08:51:20.546Z,100967.34
2023-04-28T08:56:27.806Z,100971.06
2023-04-28T08:58:55.858Z,100976.00
2023-04-28T09:01:23.959Z,100974.78
2023-04-28T09:03:54.250Z,100976.22
2023-04-28T09:06:23.063Z,100983.41
2023-04-28T09:08:50.787Z,100991.41
2023-04-28T09:11:19.447Z,100994.09
2023-04-28T09:13:47.115Z,100991.19
2023-04-28T09:16:14.821Z,100996.28
2023-04-28T09:18:57.167Z,100996.72
2023-04-28T09:21:24.763Z,101000.81
2023-04-28T09:23:52.708Z,101009.41
2023-04-28T09:26:20.341Z,101014.50
2023-04-28T09:28:48.132Z,101012.72
2023-04-28T09:31:28.390Z,101009.03
2023-04-28T09:34:00.672Z,101016.94
2023-04-28T09:36:30.974Z,101018.38
2023-04-28T09:39:01.775Z,101017.44
2023-04-28T09:41:42.704Z,101018.47
2023-04-28T09:44:17.607Z,101024.00
2023-04-28T09:46:46.624Z,101017.97
2023-04-28T09:49:15.451Z,101019.41
2023-04-28T09:51:43.040Z,101022.94
2023-04-28T09:54:11.773Z,101022.25
2023-04-28T09:56:41.403Z,101028.75
2023-04-28T09:59:09.309Z,101032.88
2023-04-28T10:01:40.978Z,101032.19
2023-04-28T10:04:12.025Z,101030.78
2023-04-28T10:06:40.537Z,101026.69
2023-04-28T10:09:08.532Z,101044.78
2023-04-28T10:11:37.313Z,101038.88
2023-04-28T10:14:04.986Z,101037.59
2023-04-28T10:16:33.277Z,101047.78
2023-04-28T10:19:03.400Z,101050.59
2023-04-28T10:21:35.901Z,101047.34
2023-04-28T10:24:15.242Z,101053.84
2023-04-28T10:27:09.299Z,101055.81
2023-04-28T10:29:37.747Z,101060.47
2023-04-28T10:32:21.795Z,101062.56
2023-04-28T10:34:49.927Z,101058.91
2023-04-28T10:37:19.336Z,101064.69
2023-04-28T10:40:27.975Z,101070.91
2023-04-28T10:42:56.791Z,101063.16
2023-04-28T10:45:49.427Z,101069.84
2023-04-28T10:48:18.564Z,101065.34
2023-04-28T10:51:04.757Z,101068.47
2023-04-28T10:53:44.962Z,101071.84
2023-04-28T10:56:19.588Z,101078.19
2023-04-28T10:58:49.350Z,101070.44
2023-04-28T11:01:25.040Z,101087.25
2023-04-28T11:04:13.467Z,101073.41
2023-04-28T11:06:46.248Z,101081.00
2023-04-28T11:09:19.884Z,101081.16
2023-04-28T11:11:59.917Z,101080.44
2023-04-28T11:14:35.535Z,101089.06
2023-04-28T11:17:04.460Z,101081.72
2023-04-28T11:19:37.927Z,101088.06
2023-04-28T11:22:11.880Z,101087.50
2023-04-28T11:24:39.630Z,101090.59
2023-04-28T11:27:07.344Z,101086.78
2023-04-28T11:29:35.416Z,101087.78
2023-04-28T11:32:04.736Z,101095.41
2023-04-28T11:34:32.811Z,101095.28
2023-04-28T11:37:01.177Z,101088.22
2023-04-28T11:39:31.075Z,101089.06
2023-04-28T11:42:00.764Z,101093.00
2023-04-28T11:44:29.864Z,101099.09
2023-04-28T11:47:01.282Z,101095.97
2023-04-28T11:49:31.809Z,101094.53
2023-04-28T11:52:06.777Z,101099.28
2023-04-28T11:54:35.183Z,101097.75
2023-04-28T11:57:06.793Z,101105.06
2023-04-28T11:59:35.876Z,101106.06
2023-04-28T12:02:05.684Z,101106.78
2023-04-28T12:04:37.927Z,101109.63
2023-04-28T12:07:13.430Z,101109.94
2023-04-28T12:09:42.824Z,101111.38
2023-04-28T12:12:18.338Z,101112.59
2023-04-28T12:14:57.008Z,101128.97
2023-04-28T12:17:32.634Z,101120.22
2023-04-28T12:20:03.455Z,101126.44
2023-04-28T12:22:43.080Z,101127.44
2023-04-28T12:25:12.774Z,101121.91
2023-04-28T12:27:41.229Z,101135.78
2023-04-28T12:30:20.908Z,101131.41
2023-04-28T12:32:48.952Z,101143.16
2023-04-28T12:35:16.595Z,101141.88
2023-04-28T12:37:44.694Z,101140.03
2023-04-28T12:40:12.978Z,101139.91
2023-04-28T12:42:40.702Z,101139.19
2023-04-28T12:45:11.548Z,101146.56
2023-04-28T12:47:39.873Z,101143.44
2023-04-28T12:50:08.459Z,101139.47
2023-04-28T12:52:37.562Z,101143.03
2023-04-28T12:55:05.834Z,101137.94
2023-04-28T12:57:33.669Z,101146.00
2023-04-28T13:00:01.180Z,101151.50
2023-04-28T13:02:28.926Z,101149.22
2023-04-28T13:04:56.610Z,101158.94
2023-04-28T13:07:24.411Z,101162.03
2023-04-28T13:09:52.003Z,101156.25
2023-04-28T13:12:19.542Z,101161.34
2023-04-28T13:14:47.697Z,101166.13
2023-04-28T13:17:15.500Z,101165.28
2023-04-28T13:19:43.913Z,101170.94
2023-04-28T13:22:12.412Z,101177.59
2023-04-28T13:24:40.079Z,101178.88
2023-04-28T13:27:10.208Z,101180.56
2023-04-28T13:29:38.174Z,101186.25
2023-04-28T13:32:06.442Z,101190.34
2023-04-28T13:34:34.182Z,101186.66
2023-04-28T13:37:01.761Z,101191.75
2023-04-28T13:39:29.397Z,101191.19
2023-04-28T13:41:56.989Z,101194.72
2023-04-28T13:44:24.754Z,101192.03
2023-04-28T13:46:53.218Z,101196.28
2023-04-28T13:49:20.784Z,101196.84
2023-04-28T13:51:48.411Z,101200.94
2023-04-28T13:54:15.993Z,101205.91
2023-04-28T13:56:43.604Z,101202.09
2023-04-28T13:59:11.708Z,101199.41
2023-04-28T14:01:39.273Z,101201.38
2023-04-28T14:04:07.276Z,101204.63
2023-04-28T14:06:35.118Z,101204.34
2023-04-28T14:09:03.649Z,101207.59
2023-04-28T14:11:31.272Z,101212.94
2023-04-28T14:13:58.867Z,101204.06
2023-04-28T14:16:26.654Z,101214.78
2023-04-28T14:18:54.373Z,101214.91
2023-04-28T14:21:22.323Z,101210.53
2023-04-28T14:23:49.920Z,101206.31
2023-04-28T14:26:17.601Z,101205.75
2023-04-28T14:28:45.265Z,101212.97
2023-04-28T14:31:12.828Z,101205.06
2023-04-28T14:33:40.857Z,101207.88
2023-04-28T14:36:08.487Z,101209.72
2023-04-28T14:38:38.275Z,101205.31
2023-04-28T14:41:07.181Z,101213.69
2023-04-28T14:43:34.784Z,101206.59
2023-04-28T14:46:02.812Z,101206.56
2023-04-28T14:48:32.796Z,101218.13
2023-04-28T14:51:00.583Z,101212.91
2023-04-28T14:53:28.240Z,101208.19
2023-04-28T14:56:01.972Z,101219.75
2023-04-28T14:58:38.720Z,101223.81
2023-04-28T15:01:06.525Z,101218.09
2023-04-28T15:03:34.346Z,101213.59
2023-04-28T15:06:03.592Z,101209.72
2023-04-28T15:08:32.520Z,101213.91
2023-04-28T15:11:00.065Z,101216.69
2023-04-28T15:13:28.756Z,101208.31
2023-04-28T15:15:56.494Z,101209.75
2023-04-28T15:18:24.850Z,101214.84
2023-04-28T15:20:52.797Z,101212.97
2023-04-28T15:23:21.561Z,101212.00
2023-04-28T15:25:53.913Z,101218.59
2023-04-28T15:28:22.233Z,101213.00
2023-04-28T15:30:49.790Z,101217.28
2023-04-28T15:33:17.883Z,101218.56
2023-04-28T15:35:46.551Z,101217.09
2023-04-28T15:38:17.748Z,101223.19
2023-04-28T15:40:46.210Z,101223.50
2023-04-28T15:43:13.809Z,101226.66
2023-04-28T15:45:44.160Z,101231.16
2023-04-28T15:48:12.208Z,101227.84
2023-04-28T15:50:40.286Z,101225.44
2023-04-28T15:53:08.226Z,101234.69
2023-04-28T15:55:35.797Z,101231.16
2023-04-28T15:58:03.762Z,101222.53
2023-04-28T16:00:32.564Z,101227.91
2023-04-28T16:03:01.543Z,101224.16
2023-04-28T16:05:29.460Z,101232.72
2023-04-28T16:07:57.208Z,101230.84
2023-04-28T16:10:24.836Z,101240.16
2023-04-28T16:12:52.436Z,101238.38
2023-04-28T16:15:20.766Z,101230.00
2023-04-28T16:17:49.195Z,101233.41
2023-04-28T16:20:17.162Z,101239.63
2023-04-28T16:22:45.728Z,101237.06
2023-04-28T16:25:14.144Z,101250.84
2023-04-28T16:27:41.845Z,101248.16
2023-04-28T16:30:10.362Z,101249.88
2023-04-28T16:32:38.685Z,101250.84
2023-04-28T16:35:11.797Z,101251.84
2023-04-28T16:37:41.135Z,101252.34
2023-04-28T16:40:12.546Z,101242.41
2023-04-28T16:42:40.643Z,101255.88
2023-04-28T16:45:08.809Z,101247.91
2023-04-28T16:47:36.489Z,101254.84
2023-04-28T16:50:04.268Z,101240.00
2023-04-28T16:52:33.162Z,101247.38
2023-04-28T16:55:01.178Z,101255.09
2023-04-28T16:57:29.246Z,101257.63
2023-04-28T16:59:56.790Z,101259.47
2023-04-28T17:02:24.629Z,101262.63
2023-04-28T17:04:52.393Z,101262.78
2023-04-28T17:07:20.042Z,101265.47
2023-04-28T17:09:47.841Z,101268.31
2023-04-28T17:12:15.872Z,101271.03
2023-04-28T17:14:43.439Z,101272.16
2023-04-28T17:17:11.222Z,101274.69
2023-04-28T17:19:40.192Z,101274.31
2023-04-28T17:22:07.953Z,101279.47
2023-04-28T17:24:35.713Z,101289.13
2023-04-28T17:27:03.383Z,101288.72
2023-04-28T17:29:31.686Z,101289.44
2023-04-28T17:31:59.962Z,101287.19
2023-04-28T17:34:27.514Z,101289.63
2023-04-28T17:36:55.507Z,101288.06
2023-04-28T17:39:23.088Z,101291.19
2023-04-28T17:41:51.037Z,101291.66
2023-04-28T17:44:18.692Z,101292.91
2023-04-28T17:46:46.561Z,101293.09
2023-04-28T17:49:14.160Z,101293.22
2023-04-28T17:51:41.813Z,101304.56
2023-04-28T17:54:09.596Z,101304.84
2023-04-28T17:56:38.979Z,101308.00
2023-04-28T17:59:08.276Z,101307.56
2023-04-28T18:01:36.205Z,101304.78
2023-04-28T18:04:04.196Z,101308.59
2023-04-28T18:06:31.760Z,101306.06
2023-04-28T18:08:59.370Z,101303.38
2023-04-28T18:11:28.399Z,101307.06
2023-04-28T18:13:56.077Z,101308.22
2023-04-28T18:16:23.724Z,101310.47
2023-04-28T18:18:51.685Z,101314.59
2023-04-28T18:21:19.256Z,101314.88
2023-04-28T18:23:47.670Z,101322.25
2023-04-28T18:26:15.246Z,101317.44
2023-04-28T18:28:46.961Z,101318.44
2023-04-28T18:31:14.553Z,101320.41
2023-04-28T18:33:42.164Z,101324.25
2023-04-28T18:36:10.403Z,101323.84
2023-04-28T18:38:38.028Z,101323.41
2023-04-28T18:41:14.267Z,101327.50
2023-04-28T18:43:42.946Z,101328.78
2023-04-28T18:46:11.954Z,101331.91
2023-04-28T18:48:40.381Z,101333.59
2023-04-28T18:51:08.118Z,101343.16
2023-04-28T18:53:36.410Z,101347.09
2023-04-28T18:56:04.184Z,101346.69
2023-04-28T18:58:32.212Z,101365.03
2023-04-28T19:00:59.929Z,101366.59
2023-04-28T19:03:28.299Z,101362.88
2023-04-28T19:05:56.146Z,101368.84
2023-04-28T19:08:24.062Z,101365.69
2023-04-28T19:10:51.849Z,101373.44
2023-04-28T19:13:19.393Z,101368.16
2023-04-28T19:15:46.958Z,101374.38
2023-04-28T19:18:14.628Z,101377.69
2023-04-28T19:20:42.817Z,101380.22
2023-04-28T19:23:11.149Z,101382.13
2023-04-28T19:25:38.808Z,101382.22
2023-04-28T19:28:06.500Z,101379.59
2023-04-28T19:30:34.276Z,101386.56
2023-04-28T19:33:02.040Z,101399.91
2023-04-28T19:35:29.594Z,101395.06
2023-04-28T19:37:57.205Z,101397.25
2023-04-28T19:40:26.752Z,101404.56
2023-04-28T19:42:55.571Z,101406.66
2023-04-28T19:45:23.345Z,101412.16
2023-04-28T19:47:52.973Z,101404.13
2023-04-28T19:50:20.600Z,101416.78
2023-04-28T19:52:48.214Z,101416.78
2023-04-28T19:55:20.605Z,101419.47
2023-04-28T19:57:48.169Z,101423.00
2023-04-28T20:00:16.079Z,101422.28
2023-04-28T20:02:43.846Z,101431.44
2023-04-28T20:05:12.427Z,101435.94
2023-04-28T20:07:41.279Z,101428.88
2023-04-28T20:10:09.494Z,101430.69
2023-04-28T20:12:37.089Z,101437.03
2023-04-28T20:15:05.458Z,101430.00
2023-04-28T20:17:35.757Z,101430.84
2023-04-28T20:20:07.646Z,101432.66
2023-04-28T20:22:35.560Z,101435.34
2023-04-28T20:25:05.978Z,101432.66
2023-04-28T20:27:34.362Z,101438.28
